Pershing, Missouri
Current Conditions -  °F | °C
As of 4:53 AM on Sunday 23 Nov 2014 (Local Time) from KJEF Reporting Station
Overcast Overcast  
Wind Chill: 56°   Ceiling: 7000
Heat Index: 56°   Visibility: 10mi
Dew Point: 48°   Wind: 9mph
Humidity: 75%   Direction: 150°SSE
Pressure: 29.68"   Gusts: NA
Location:  38.5959°N, 91.6636°W
Report Text: KJEF 231053Z AUTO 15008KT 10SM FEW030 BKN070 OVC100 13/09 A2968 RMK AO2 SLP040 T01330089
Loading
Personal Weather Stations






























Interactive Weather Map New forecast layout! Learn more

10-Day Weather Forecast

Advertisements
Track Severe Weather on mobile